createdAt,value
2022-10-05T00:00:19.162Z,95811.95
2022-10-05T00:02:45.501Z,95803.70
2022-10-05T00:05:11.868Z,95813.59
2022-10-05T00:07:38.192Z,95807.48
2022-10-05T00:10:04.520Z,95807.48
2022-10-05T00:12:30.871Z,95801.24
2022-10-05T00:14:57.216Z,95807.80
2022-10-05T00:17:23.554Z,95812.16
2022-10-05T00:19:49.917Z,95808.41
2022-10-05T00:22:16.258Z,95808.41
2022-10-05T00:24:42.601Z,95804.99
2022-10-05T00:27:10.559Z,95811.83
2022-10-05T00:29:35.286Z,95806.42
2022-10-05T00:32:01.668Z,95806.06
2022-10-05T00:34:27.963Z,95796.88
2022-10-05T00:36:54.304Z,95801.48
2022-10-05T00:39:20.631Z,95781.23
2022-10-05T00:41:46.974Z,95789.95
2022-10-05T00:44:13.306Z,95789.25
2022-10-05T00:46:39.648Z,95800.98
2022-10-05T00:49:05.988Z,95800.98
2022-10-05T00:51:32.333Z,95799.00
2022-10-05T00:53:58.664Z,95802.42
2022-10-05T00:56:25.002Z,95801.59
2022-10-05T00:58:51.336Z,95782.67
2022-10-05T01:01:17.740Z,95804.08
2022-10-05T01:03:44.010Z,95809.73
2022-10-05T01:06:10.377Z,95809.84
2022-10-05T01:08:36.709Z,95823.50
2022-10-05T01:11:03.053Z,95831.27
2022-10-05T01:13:29.414Z,95812.22
2022-10-05T01:15:55.760Z,95812.22
2022-10-05T01:18:22.094Z,95829.51
2022-10-05T01:20:48.435Z,95832.92
2022-10-05T01:23:14.774Z,95830.80
2022-10-05T01:25:41.118Z,95832.23
2022-10-05T01:28:07.494Z,95818.94
2022-10-05T01:30:33.832Z,95831.89
2022-10-05T01:33:00.166Z,95826.95
2022-10-05T01:35:26.504Z,95834.47
2022-10-05T01:37:52.833Z,95847.88
2022-10-05T01:40:19.175Z,95846.83
2022-10-05T01:42:45.522Z,95856.36
2022-10-05T01:45:11.856Z,95853.77
2022-10-05T01:47:38.196Z,95859.78
2022-10-05T01:50:04.537Z,95841.64
2022-10-05T01:52:30.889Z,95867.66
2022-10-05T01:54:57.230Z,95868.63
2022-10-05T01:57:23.594Z,95881.34
2022-10-05T01:59:49.907Z,95883.44
2022-10-05T02:02:16.336Z,95883.44
2022-10-05T02:05:02.101Z,95886.39
2022-10-05T02:07:08.952Z,95883.44
2022-10-05T02:09:35.299Z,95883.44
2022-10-05T02:12:01.633Z,95882.28
2022-10-05T02:14:27.973Z,95872.73
2022-10-05T02:16:54.312Z,95873.23
2022-10-05T02:19:20.656Z,95874.52
2022-10-05T02:21:46.988Z,95877.80
2022-10-05T02:24:13.335Z,95886.53
2022-10-05T02:26:39.663Z,95881.20
2022-10-05T02:29:06.011Z,95886.04
2022-10-05T02:31:32.407Z,95878.61
2022-10-05T02:33:58.711Z,95870.84
2022-10-05T02:36:25.076Z,95877.80
2022-10-05T02:38:51.412Z,95877.20
2022-10-05T02:41:17.750Z,95885.45
2022-10-05T02:43:44.093Z,95885.45
2022-10-05T02:46:10.528Z,95883.56
2022-10-05T02:48:36.792Z,95883.79
2022-10-05T02:51:03.150Z,95891.23
2022-10-05T02:53:29.596Z,95887.91
2022-10-05T02:55:55.937Z,95889.94
2022-10-05T02:58:22.272Z,95880.28
2022-10-05T03:00:48.637Z,95877.56
2022-10-05T03:03:14.950Z,95883.57
2022-10-05T03:05:41.289Z,95884.50
2022-10-05T03:08:07.629Z,95884.03
2022-10-05T03:10:33.963Z,95870.60
2022-10-05T03:13:00.308Z,95870.60
2022-10-05T03:15:26.645Z,95902.63
2022-10-05T03:17:52.994Z,95902.63
2022-10-05T03:20:19.330Z,95899.94
2022-10-05T03:22:45.671Z,95899.94
2022-10-05T03:25:12.021Z,95905.58
2022-10-05T03:27:38.370Z,95905.35
2022-10-05T03:30:05.652Z,95887.80
2022-10-05T03:32:31.049Z,95887.80
2022-10-05T03:34:58.340Z,95901.00
2022-10-05T03:37:23.726Z,95903.09
2022-10-05T03:39:50.063Z,95910.87
2022-10-05T03:42:16.408Z,95923.22
2022-10-05T03:44:42.749Z,95930.52
2022-10-05T03:47:09.098Z,95916.28
2022-10-05T03:49:35.465Z,95935.00
2022-10-05T03:52:01.802Z,95935.00
2022-10-05T03:54:29.362Z,95931.58
2022-10-05T03:56:54.544Z,95941.58
2022-10-05T03:59:20.910Z,95943.37
2022-10-05T04:01:47.295Z,95956.91
2022-10-05T04:04:13.617Z,95956.91
2022-10-05T04:06:41.154Z,95968.77
2022-10-05T04:09:06.284Z,95968.77
2022-10-05T04:11:32.631Z,95961.73
2022-10-05T04:13:58.988Z,95966.77
2022-10-05T04:16:25.382Z,95964.55
2022-10-05T04:18:52.622Z,95967.01
2022-10-05T04:21:21.415Z,95957.48
2022-10-05T04:23:44.411Z,95957.48
2022-10-05T04:26:10.846Z,95959.60
2022-10-05T04:28:37.229Z,95963.02
2022-10-05T04:31:03.573Z,95969.49
2022-10-05T04:33:29.867Z,95977.36
2022-10-05T04:35:56.199Z,95970.79
2022-10-05T04:38:22.544Z,95966.12
2022-10-05T04:40:48.877Z,95969.73
2022-10-05T04:43:15.219Z,95976.06
2022-10-05T04:45:41.585Z,95966.77
2022-10-05T04:48:07.949Z,95955.72
2022-10-05T04:50:34.261Z,95980.22
2022-10-05T04:53:00.601Z,95979.16
2022-10-05T04:55:26.937Z,95979.16
2022-10-05T04:57:53.281Z,95997.33
2022-10-05T05:00:19.632Z,95983.41
2022-10-05T05:02:45.969Z,95983.41
2022-10-05T05:05:12.388Z,95996.16
2022-10-05T05:07:38.737Z,95996.16
2022-10-05T05:10:05.074Z,95986.84
2022-10-05T05:12:31.415Z,95994.98
2022-10-05T05:14:57.754Z,96002.45
2022-10-05T05:17:24.101Z,95972.95
2022-10-05T05:19:50.438Z,96001.03
2022-10-05T05:22:17.743Z,96001.03
2022-10-05T05:24:43.132Z,96004.45
2022-10-05T05:27:09.462Z,95998.56
2022-10-05T05:29:35.843Z,95992.89
2022-10-05T05:32:02.206Z,95992.89
2022-10-05T05:34:28.577Z,96005.02
2022-10-05T05:36:54.961Z,96005.02
2022-10-05T05:39:21.304Z,96013.75
2022-10-05T05:41:47.659Z,96007.26
2022-10-05T05:44:14.001Z,95994.88
2022-10-05T05:47:02.490Z,96004.31
2022-10-05T05:49:06.671Z,96004.31
2022-10-05T05:51:33.242Z,95990.08
2022-10-05T05:53:59.581Z,95990.08
2022-10-05T05:56:25.933Z,96002.09
2022-10-05T05:58:52.282Z,96024.11
2022-10-05T06:01:32.267Z,96016.11
2022-10-05T06:03:45.010Z,96009.63
2022-10-05T06:06:11.386Z,96009.63
2022-10-05T06:08:37.725Z,96027.40
2022-10-05T06:11:04.074Z,96037.20
2022-10-05T06:13:30.414Z,96012.44
2022-10-05T06:15:56.825Z,96037.31
2022-10-05T06:18:23.111Z,96034.25
2022-10-05T06:20:49.481Z,96033.54
2022-10-05T06:23:15.824Z,96026.94
2022-10-05T06:25:42.167Z,96045.79
2022-10-05T06:28:08.545Z,96053.59
2022-10-05T06:30:34.955Z,96056.20
2022-10-05T06:33:01.292Z,96054.44
2022-10-05T06:35:27.651Z,96026.11
2022-10-05T06:37:54.122Z,96067.41
2022-10-05T06:40:20.464Z,96067.41
2022-10-05T06:42:46.807Z,96061.49
2022-10-05T06:45:13.152Z,96061.49
2022-10-05T06:47:39.506Z,96065.64
2022-10-05T06:50:05.846Z,96072.92
2022-10-05T06:52:32.191Z,96081.77
2022-10-05T06:54:58.550Z,96085.33
2022-10-05T06:57:24.900Z,96092.28
2022-10-05T06:59:51.241Z,96083.08
2022-10-05T07:02:17.586Z,96088.02
2022-10-05T07:04:43.974Z,96086.25
2022-10-05T07:07:10.313Z,96094.16
2022-10-05T07:09:36.674Z,96082.94
2022-10-05T07:12:05.379Z,96073.53
2022-10-05T07:14:29.488Z,96080.12
2022-10-05T07:16:55.854Z,96080.12
2022-10-05T07:19:22.214Z,96073.47
2022-10-05T07:21:48.942Z,96073.47
2022-10-05T07:24:15.009Z,96082.81
2022-10-05T07:26:41.364Z,96063.58
2022-10-05T07:29:07.720Z,96074.77
2022-10-05T07:31:35.223Z,96074.77
2022-10-05T07:34:01.573Z,96074.20
2022-10-05T07:36:27.946Z,96065.84
2022-10-05T07:38:54.287Z,96071.70
2022-10-05T07:41:20.669Z,96071.70
2022-10-05T07:44:04.338Z,96073.00
2022-10-05T07:46:14.488Z,96076.65
2022-10-05T07:48:40.769Z,96073.56
2022-10-05T07:51:07.127Z,96080.55
2022-10-05T07:53:33.462Z,96075.84
2022-10-05T07:55:59.889Z,96076.45
2022-10-05T07:58:26.282Z,96074.05
2022-10-05T08:00:52.584Z,96075.36
2022-10-05T08:03:19.055Z,96062.38
2022-10-05T08:05:47.018Z,96083.13
2022-10-05T08:08:13.359Z,96067.73
2022-10-05T08:10:38.031Z,96067.73
2022-10-05T08:13:04.397Z,96072.94
2022-10-05T08:15:30.815Z,96072.94
2022-10-05T08:17:57.152Z,96081.66
2022-10-05T08:20:23.603Z,96083.08
2022-10-05T08:22:49.955Z,96087.89
2022-10-05T08:25:17.518Z,96095.93
2022-10-05T08:27:42.682Z,96062.53
2022-10-05T08:30:09.027Z,96103.47
2022-10-05T08:32:35.364Z,96104.19
2022-10-05T08:35:01.733Z,96105.36
2022-10-05T08:37:28.049Z,96090.37
2022-10-05T08:39:54.424Z,96088.27
2022-10-05T08:42:20.775Z,96096.48
2022-10-05T08:44:47.122Z,96096.03
2022-10-05T08:47:13.477Z,96088.84
2022-10-05T08:49:39.817Z,96090.68
2022-10-05T08:52:06.154Z,96085.99
2022-10-05T08:54:32.514Z,96087.64
2022-10-05T08:56:58.894Z,96088.33
2022-10-05T08:59:25.227Z,96084.80
2022-10-05T09:01:51.631Z,96083.61
2022-10-05T09:04:17.904Z,96080.44
2022-10-05T09:06:44.238Z,96084.09
2022-10-05T09:09:10.582Z,96081.50
2022-10-05T09:11:36.934Z,96089.06
2022-10-05T09:14:03.311Z,96089.88
2022-10-05T09:16:29.648Z,96085.41
2022-10-05T09:18:56.036Z,96089.30
2022-10-05T09:21:23.492Z,96086.92
2022-10-05T09:23:49.892Z,96086.44
2022-10-05T09:26:16.240Z,96079.48
2022-10-05T09:28:42.617Z,96086.55
2022-10-05T09:31:09.025Z,96079.25
2022-10-05T09:33:35.300Z,96078.31
2022-10-05T09:36:01.651Z,96081.02
2022-10-05T09:38:28.026Z,96089.03
2022-10-05T09:40:54.381Z,96091.92
2022-10-05T09:43:20.749Z,96087.80
2022-10-05T09:45:47.112Z,96087.80
2022-10-05T09:48:13.458Z,96087.62
2022-10-05T09:50:39.807Z,96088.41
2022-10-05T09:53:06.277Z,96091.03
2022-10-05T09:55:32.646Z,96091.97
2022-10-05T09:57:59.040Z,96087.38
2022-10-05T10:00:25.418Z,96074.48
2022-10-05T10:02:51.853Z,96080.60
2022-10-05T10:05:18.187Z,96083.00
2022-10-05T10:07:45.488Z,96085.00
2022-10-05T10:10:10.906Z,96082.55
2022-10-05T10:12:37.268Z,96090.19
2022-10-05T10:15:03.634Z,96087.59
2022-10-05T10:17:29.974Z,96085.97
2022-10-05T10:19:56.325Z,96085.38
2022-10-05T10:22:22.681Z,96086.30
2022-10-05T10:24:49.023Z,96086.55
2022-10-05T10:27:15.357Z,96092.08
2022-10-05T10:29:41.697Z,96091.83
2022-10-05T10:32:08.056Z,96084.53
2022-10-05T10:34:34.438Z,96086.30
2022-10-05T10:37:00.776Z,96078.51
2022-10-05T10:39:27.115Z,96080.38
2022-10-05T10:41:53.465Z,96071.55
2022-10-05T10:44:19.814Z,96070.86
2022-10-05T10:46:46.729Z,96064.98
2022-10-05T10:49:12.543Z,96035.30
2022-10-05T10:51:38.925Z,96057.56
2022-10-05T10:54:05.302Z,96052.02
2022-10-05T10:56:34.681Z,96051.19
2022-10-05T10:59:01.029Z,96050.61
2022-10-05T11:01:27.913Z,96033.28
2022-10-05T11:03:54.232Z,96041.88
2022-10-05T11:06:20.577Z,96044.70
2022-10-05T11:08:46.924Z,96021.48
2022-10-05T11:11:13.256Z,96021.48
2022-10-05T11:13:39.599Z,96029.48
2022-10-05T11:18:32.297Z,96031.05
2022-10-05T11:20:58.630Z,96024.42
2022-10-05T11:23:24.981Z,96018.52
2022-10-05T11:25:51.325Z,96023.69
2022-10-05T11:28:17.690Z,96022.41
2022-10-05T11:30:47.467Z,96004.96
2022-10-05T11:33:10.361Z,96020.97
2022-10-05T11:35:36.715Z,96011.45
2022-10-05T11:38:03.064Z,96006.70
2022-10-05T11:40:29.411Z,96006.48
2022-10-05T11:42:55.759Z,96004.94
2022-10-05T11:45:22.107Z,96005.63
2022-10-05T11:47:48.452Z,96002.45
2022-10-05T11:50:14.794Z,95999.49
2022-10-05T11:52:41.141Z,95997.62
2022-10-05T11:55:11.966Z,95995.58
2022-10-05T11:57:33.925Z,95995.69
2022-10-05T12:00:00.311Z,95992.37
2022-10-05T12:02:26.744Z,95994.14
2022-10-05T12:04:53.095Z,95979.97
2022-10-05T12:07:19.440Z,95978.34
2022-10-05T12:09:45.783Z,95979.39
2022-10-05T12:12:12.139Z,95983.28
2022-10-05T12:14:38.478Z,95981.02
2022-10-05T12:17:04.838Z,95972.64
2022-10-05T12:19:31.164Z,95976.65
2022-10-05T12:21:57.521Z,95973.55
2022-10-05T12:24:26.841Z,95973.55
2022-10-05T12:26:50.199Z,95979.09
2022-10-05T12:29:16.532Z,95979.67
2022-10-05T12:31:42.921Z,95986.78
2022-10-05T12:34:09.225Z,95961.54
2022-10-05T12:37:02.471Z,95961.54
2022-10-05T12:39:01.940Z,95979.71
2022-10-05T12:41:28.327Z,95983.92
2022-10-05T12:43:54.672Z,95984.18
2022-10-05T12:46:21.055Z,95979.92
2022-10-05T12:48:48.616Z,95980.50
2022-10-05T12:51:13.762Z,95982.27
2022-10-05T12:53:40.166Z,95982.48
2022-10-05T12:56:06.524Z,95988.40
2022-10-05T12:58:32.913Z,95982.95
2022-10-05T13:00:59.322Z,95976.20
2022-10-05T13:03:25.610Z,95982.80
2022-10-05T13:05:51.977Z,95986.88
2022-10-05T13:08:18.334Z,95981.08
2022-10-05T13:10:44.704Z,95979.89
2022-10-05T13:13:11.026Z,95984.51
2022-10-05T13:15:37.371Z,95986.63
2022-10-05T13:18:03.755Z,95985.91
2022-10-05T13:20:30.099Z,95984.50
2022-10-05T13:22:56.449Z,95979.02
2022-10-05T13:25:22.838Z,95973.56
2022-10-05T13:27:49.185Z,95974.03
2022-10-05T13:30:15.543Z,95963.42
2022-10-05T13:32:41.935Z,95960.53
2022-10-05T13:35:11.696Z,95960.63
2022-10-05T13:37:37.100Z,95954.97
2022-10-05T13:40:03.486Z,95955.44
2022-10-05T13:42:29.838Z,95958.86
2022-10-05T13:44:56.296Z,95956.38
2022-10-05T13:47:22.700Z,95955.17
2022-10-05T13:49:49.055Z,95936.72
2022-10-05T13:52:15.396Z,95941.86
2022-10-05T13:54:41.745Z,95942.70
2022-10-05T13:57:08.089Z,95939.99
2022-10-05T13:59:34.451Z,95940.31
2022-10-05T14:02:00.815Z,95940.36
2022-10-05T14:04:27.194Z,95944.61
2022-10-05T14:06:53.544Z,95942.02
2022-10-05T14:09:19.916Z,95935.64
2022-10-05T14:11:46.270Z,95941.19
2022-10-05T14:14:12.630Z,95934.74
2022-10-05T14:16:39.269Z,95932.30
2022-10-05T14:19:05.571Z,95934.07
2022-10-05T14:21:31.901Z,95936.52
2022-10-05T14:23:58.258Z,95939.73
2022-10-05T14:26:24.608Z,95939.27
2022-10-05T14:28:50.965Z,95943.06
2022-10-05T14:31:17.683Z,95936.23
2022-10-05T14:33:43.665Z,95888.61
2022-10-05T14:36:10.056Z,95937.29
2022-10-05T14:38:36.401Z,95941.19
2022-10-05T14:41:02.755Z,95938.59
2022-10-05T14:43:29.117Z,95938.73
2022-10-05T14:45:55.513Z,95936.36
2022-10-05T14:48:23.090Z,95932.36
2022-10-05T14:50:48.495Z,95931.16
2022-10-05T14:53:14.851Z,95931.05
2022-10-05T14:55:41.195Z,95937.44
2022-10-05T14:58:07.541Z,95929.28
2022-10-05T15:00:33.887Z,95929.39
2022-10-05T15:03:00.228Z,95930.92
2022-10-05T15:05:26.573Z,95938.16
2022-10-05T15:07:52.907Z,95938.38
2022-10-05T15:10:19.264Z,95941.92
2022-10-05T15:12:45.604Z,95940.05
2022-10-05T15:15:11.976Z,95941.48
2022-10-05T15:17:38.323Z,95943.36
2022-10-05T15:20:04.669Z,95947.26
2022-10-05T15:22:31.186Z,95950.00
2022-10-05T15:24:57.473Z,95953.06
2022-10-05T15:27:23.812Z,95953.17
2022-10-05T15:29:52.433Z,95957.06
2022-10-05T15:32:16.576Z,95964.03
2022-10-05T15:34:42.908Z,95963.67
2022-10-05T15:37:09.264Z,95961.58
2022-10-05T15:39:35.592Z,95969.58
2022-10-05T15:42:01.925Z,95970.30
2022-10-05T15:44:28.265Z,95977.37
2022-10-05T15:46:54.597Z,95980.80
2022-10-05T15:49:20.949Z,95982.20
2022-10-05T15:51:47.283Z,95984.33
2022-10-05T15:54:13.636Z,95987.14
2022-10-05T15:56:39.983Z,95984.58
2022-10-05T15:59:06.352Z,95957.97
2022-10-05T16:01:32.718Z,95992.27
2022-10-05T16:03:59.058Z,95997.56
2022-10-05T16:06:25.394Z,96006.51
2022-10-05T16:08:51.778Z,96008.38
2022-10-05T16:11:19.181Z,96009.32
2022-10-05T16:13:44.465Z,96016.53
2022-10-05T16:16:10.805Z,96019.02
2022-10-05T16:18:37.155Z,96009.16
2022-10-05T16:21:03.492Z,96020.09
2022-10-05T16:23:29.834Z,96020.56
2022-10-05T16:25:56.168Z,96017.25
2022-10-05T16:28:22.916Z,96031.31
2022-10-05T16:30:48.894Z,96035.06
2022-10-05T16:33:15.189Z,96039.35
2022-10-05T16:35:41.522Z,96039.92
2022-10-05T16:38:07.870Z,96046.42
2022-10-05T16:40:34.206Z,96048.66
2022-10-05T16:43:00.561Z,96050.78
2022-10-05T16:45:26.907Z,96055.28
2022-10-05T16:47:53.252Z,96055.75
2022-10-05T16:50:19.590Z,96053.77
2022-10-05T16:52:45.929Z,96057.91
2022-10-05T16:55:12.261Z,96051.17
2022-10-05T16:57:38.613Z,96053.19
2022-10-05T17:00:04.994Z,96059.78
2022-10-05T17:02:31.395Z,96052.45
2022-10-05T17:04:57.689Z,96057.79
2022-10-05T17:07:24.065Z,96061.55
2022-10-05T17:09:50.406Z,96061.09
2022-10-05T17:12:16.742Z,96061.20
2022-10-05T17:14:43.094Z,96067.36
2022-10-05T17:17:09.453Z,96068.05
2022-10-05T17:22:21.133Z,96069.73
2022-10-05T17:24:47.497Z,96073.27
2022-10-05T17:27:13.836Z,96072.66
2022-10-05T17:29:40.179Z,96069.84
2022-10-05T17:32:06.522Z,96074.67
2022-10-05T17:34:32.861Z,96076.80
2022-10-05T17:36:59.284Z,96080.00
2022-10-05T17:39:25.581Z,96070.55
2022-10-05T17:41:51.922Z,96071.04
2022-10-05T17:44:18.264Z,96069.73
2022-10-05T17:46:44.609Z,96076.33
2022-10-05T17:49:10.941Z,96076.70
2022-10-05T17:51:37.306Z,96083.78
2022-10-05T17:54:03.646Z,96090.27
2022-10-05T17:56:29.989Z,96086.38
2022-10-05T17:58:56.352Z,96088.02
2022-10-05T18:01:22.725Z,96090.63
2022-10-05T18:03:49.028Z,96086.02
2022-10-05T18:06:15.373Z,96094.05
2022-10-05T18:08:41.741Z,96094.41
2022-10-05T18:11:08.095Z,96101.22
2022-10-05T18:13:34.419Z,96091.34
2022-10-05T18:16:00.820Z,96096.03
2022-10-05T18:18:27.407Z,96100.75
2022-10-05T18:20:53.469Z,96097.00
2022-10-05T18:23:19.832Z,96103.35
2022-10-05T18:25:46.166Z,96107.84
2022-10-05T18:28:12.542Z,96115.04
2022-10-05T18:30:38.850Z,96107.72
2022-10-05T18:33:05.217Z,96105.45
2022-10-05T18:35:31.709Z,96113.59
2022-10-05T18:37:58.071Z,96112.29
2022-10-05T18:40:24.473Z,96113.13
2022-10-05T18:42:50.805Z,96109.94
2022-10-05T18:45:17.146Z,96116.89
2022-10-05T18:47:43.483Z,96103.56
2022-10-05T18:50:09.851Z,96119.61
2022-10-05T18:52:36.181Z,96105.09
2022-10-05T18:55:02.510Z,96112.30
2022-10-05T18:57:28.854Z,96115.36
2022-10-05T18:59:55.188Z,96121.84
2022-10-05T19:02:21.611Z,96128.94
2022-10-05T19:04:47.896Z,96128.47
2022-10-05T19:07:14.237Z,96126.58
2022-10-05T19:09:40.615Z,96127.27
2022-10-05T19:12:06.944Z,96124.21
2022-10-05T19:14:33.288Z,96124.67
2022-10-05T19:16:59.624Z,96130.80
2022-10-05T19:19:30.816Z,96127.61
2022-10-05T19:21:54.734Z,96121.63
2022-10-05T19:24:21.078Z,96131.63
2022-10-05T19:26:47.406Z,96132.44
2022-10-05T19:29:13.787Z,96130.21
2022-10-05T19:31:40.207Z,96130.21
2022-10-05T19:34:06.466Z,96135.86
2022-10-05T19:36:32.800Z,96136.23
2022-10-05T19:38:59.146Z,96136.45
2022-10-05T19:41:25.475Z,96142.34
2022-10-05T19:43:51.821Z,96143.78
2022-10-05T19:46:19.951Z,96147.30
2022-10-05T19:48:44.586Z,96142.81
2022-10-05T19:51:10.924Z,96154.15
2022-10-05T19:53:37.270Z,96138.59
2022-10-05T19:56:03.603Z,96134.47
2022-10-05T19:58:30.364Z,96149.20
2022-10-05T20:00:56.312Z,96145.41
2022-10-05T20:03:22.653Z,96150.96
2022-10-05T20:05:48.991Z,96137.03
2022-10-05T20:08:15.327Z,96147.17
2022-10-05T20:10:41.669Z,96147.17
2022-10-05T20:13:08.008Z,96162.03
2022-10-05T20:15:34.353Z,96156.25
2022-10-05T20:18:00.696Z,96159.57
2022-10-05T20:20:27.090Z,96160.64
2022-10-05T20:22:53.419Z,96157.78
2022-10-05T20:25:19.758Z,96155.09
2022-10-05T20:27:46.106Z,96154.02
2022-10-05T20:30:12.442Z,96149.44
2022-10-05T20:32:38.781Z,96148.60
2022-10-05T20:35:05.124Z,96151.76
2022-10-05T20:37:31.462Z,96155.65
2022-10-05T20:39:57.793Z,96152.36
2022-10-05T20:42:24.176Z,96157.55
2022-10-05T20:44:55.802Z,96151.63
2022-10-05T20:47:16.822Z,96151.63
2022-10-05T20:49:43.153Z,96160.14
2022-10-05T20:52:09.490Z,96159.07
2022-10-05T20:54:35.892Z,96170.14
2022-10-05T20:57:02.194Z,96161.66
2022-10-05T20:59:28.528Z,96164.72
2022-10-05T21:01:54.875Z,96170.74
2022-10-05T21:04:21.269Z,96167.91
2022-10-05T21:06:47.560Z,96166.48
2022-10-05T21:09:13.906Z,96170.84
2022-10-05T21:11:40.246Z,96163.20
2022-10-05T21:14:06.585Z,96168.02
2022-10-05T21:16:32.964Z,96166.39
2022-10-05T21:18:59.276Z,96172.37
2022-10-05T21:21:25.613Z,96169.78
2022-10-05T21:23:51.947Z,96171.67
2022-10-05T21:26:18.300Z,96171.67
2022-10-05T21:28:44.667Z,96174.16
2022-10-05T21:31:11.024Z,96156.67
2022-10-05T21:33:37.315Z,96172.59
2022-10-05T21:36:03.660Z,96168.38
2022-10-05T21:38:30.267Z,96173.89
2022-10-05T21:40:56.335Z,96174.86
2022-10-05T21:43:22.678Z,96170.00
2022-10-05T21:45:49.052Z,96151.55
2022-10-05T21:48:15.368Z,96171.43
2022-10-05T21:50:41.703Z,96174.48
2022-10-05T21:53:08.040Z,96171.30
2022-10-05T21:55:34.376Z,96169.03
2022-10-05T21:58:00.708Z,96154.27
2022-10-05T22:00:27.059Z,96138.95
2022-10-05T22:02:53.398Z,96160.80
2022-10-05T22:05:19.806Z,96155.61
2022-10-05T22:07:46.088Z,96155.61
2022-10-05T22:10:12.437Z,96156.30
2022-10-05T22:12:38.791Z,96148.06
2022-10-05T22:15:06.434Z,96141.64
2022-10-05T22:17:31.491Z,96141.64
2022-10-05T22:19:57.830Z,96149.36
2022-10-05T22:22:24.163Z,96154.91
2022-10-05T22:24:50.769Z,96156.73
2022-10-05T22:27:17.098Z,96151.55
2022-10-05T22:29:43.440Z,96142.23
2022-10-05T22:32:09.820Z,96126.55
2022-10-05T22:34:36.123Z,96148.95
2022-10-05T22:37:02.458Z,96148.95
2022-10-05T22:39:28.835Z,96132.70
2022-10-05T22:41:55.162Z,96148.76
2022-10-05T22:44:21.502Z,96129.98
2022-10-05T22:46:47.862Z,96148.02
2022-10-05T22:49:14.195Z,96147.66
2022-10-05T22:51:40.535Z,96139.88
2022-10-05T22:54:06.870Z,96144.23
2022-10-05T22:56:33.242Z,96130.34
2022-10-05T22:58:59.581Z,96144.60
2022-10-05T23:01:25.991Z,96143.44
2022-10-05T23:03:52.277Z,96137.19
2022-10-05T23:06:18.618Z,96137.05
2022-10-05T23:08:44.958Z,96136.45
2022-10-05T23:11:11.289Z,96132.92
2022-10-05T23:13:37.636Z,96106.50
2022-10-05T23:16:03.975Z,96106.50
2022-10-05T23:18:30.927Z,96119.45
2022-10-05T23:20:56.649Z,96137.39
2022-10-05T23:23:22.993Z,96132.80
2022-10-05T23:25:49.330Z,96132.56
2022-10-05T23:28:15.738Z,96135.75
2022-10-05T23:30:42.090Z,96141.87
2022-10-05T23:33:08.390Z,96141.73
2022-10-05T23:35:34.723Z,96141.73
2022-10-05T23:38:01.066Z,96116.13
2022-10-05T23:40:27.403Z,96144.59
2022-10-05T23:42:53.745Z,96139.27
2022-10-05T23:45:20.088Z,96144.45
2022-10-05T23:47:46.438Z,96147.98
2022-10-05T23:50:12.770Z,96115.06
2022-10-05T23:52:39.119Z,96125.56
2022-10-05T23:55:05.448Z,96125.56
2022-10-05T23:57:31.789Z,96125.56
2022-10-05T23:59:58.132Z,96140.20
